sensor_id;sensor_type;location;lat;lon;timestamp;P1;durP1;ratioP1;P2;durP2;ratioP2
14975;SDS011;7584;60.468;25.126;2023-01-30T00:01:12;2.30;;;0.23;;
14975;SDS011;7584;60.468;25.126;2023-01-30T00:03:38;0.60;;;0.23;;
14975;SDS011;7584;60.468;25.126;2023-01-30T00:06:03;0.20;;;0.20;;
14975;SDS011;7584;60.468;25.126;2023-01-30T00:08:28;1.17;;;0.30;;
14975;SDS011;7584;60.468;25.126;2023-01-30T00:10:54;0.30;;;0.20;;
14975;SDS011;7584;60.468;25.126;2023-01-30T00:13:19;0.80;;;0.20;;
14975;SDS011;7584;60.468;25.126;2023-01-30T00:15:44;1.00;;;0.20;;
14975;SDS011;7584;60.468;25.126;2023-01-30T00:18:11;1.30;;;0.20;;
14975;SDS011;7584;60.468;25.126;2023-01-30T00:20:36;0.20;;;0.20;;
14975;SDS011;7584;60.468;25.126;2023-01-30T00:23:02;0.37;;;0.20;;
14975;SDS011;7584;60.468;25.126;2023-01-30T00:25:27;0.10;;;0.10;;
14975;SDS011;7584;60.468;25.126;2023-01-30T00:27:53;0.70;;;0.20;;
14975;SDS011;7584;60.468;25.126;2023-01-30T00:30:18;0.20;;;0.20;;
14975;SDS011;7584;60.468;25.126;2023-01-30T00:32:44;4.00;;;0.40;;
14975;SDS011;7584;60.468;25.126;2023-01-30T00:35:09;1.43;;;0.30;;
14975;SDS011;7584;60.468;25.126;2023-01-30T00:37:34;0.30;;;0.30;;
14975;SDS011;7584;60.468;25.126;2023-01-30T00:39:59;0.30;;;0.20;;
14975;SDS011;7584;60.468;25.126;2023-01-30T00:42:25;0.40;;;0.20;;
14975;SDS011;7584;60.468;25.126;2023-01-30T00:45:09;0.73;;;0.30;;
14975;SDS011;7584;60.468;25.126;2023-01-30T00:47:53;0.20;;;0.20;;
14975;SDS011;7584;60.468;25.126;2023-01-30T00:50:19;0.23;;;0.20;;
14975;SDS011;7584;60.468;25.126;2023-01-30T00:52:44;1.03;;;0.23;;
14975;SDS011;7584;60.468;25.126;2023-01-30T00:55:09;0.30;;;0.30;;
14975;SDS011;7584;60.468;25.126;2023-01-30T00:57:35;0.23;;;0.20;;
14975;SDS011;7584;60.468;25.126;2023-01-30T01:00:00;0.57;;;0.23;;
14975;SDS011;7584;60.468;25.126;2023-01-30T01:02:25;0.50;;;0.30;;
14975;SDS011;7584;60.468;25.126;2023-01-30T01:04:51;0.30;;;0.30;;
14975;SDS011;7584;60.468;25.126;2023-01-30T01:07:16;0.20;;;0.20;;
14975;SDS011;7584;60.468;25.126;2023-01-30T01:09:41;0.20;;;0.20;;
14975;SDS011;7584;60.468;25.126;2023-01-30T01:12:06;0.50;;;0.30;;
14975;SDS011;7584;60.468;25.126;2023-01-30T01:14:32;0.40;;;0.30;;
14975;SDS011;7584;60.468;25.126;2023-01-30T01:16:57;0.20;;;0.20;;
14975;SDS011;7584;60.468;25.126;2023-01-30T01:19:23;0.30;;;0.27;;
14975;SDS011;7584;60.468;25.126;2023-01-30T01:21:48;0.47;;;0.30;;
14975;SDS011;7584;60.468;25.126;2023-01-30T01:24:14;0.40;;;0.23;;
14975;SDS011;7584;60.468;25.126;2023-01-30T01:26:39;0.37;;;0.30;;
14975;SDS011;7584;60.468;25.126;2023-01-30T01:29:05;0.50;;;0.33;;
14975;SDS011;7584;60.468;25.126;2023-01-30T01:31:31;0.43;;;0.20;;
14975;SDS011;7584;60.468;25.126;2023-01-30T01:33:56;1.27;;;0.20;;
14975;SDS011;7584;60.468;25.126;2023-01-30T01:36:21;0.50;;;0.20;;
14975;SDS011;7584;60.468;25.126;2023-01-30T01:38:47;0.30;;;0.30;;
14975;SDS011;7584;60.468;25.126;2023-01-30T01:41:12;0.40;;;0.30;;
14975;SDS011;7584;60.468;25.126;2023-01-30T01:46:24;0.30;;;0.20;;
14975;SDS011;7584;60.468;25.126;2023-01-30T01:48:52;0.30;;;0.30;;
14975;SDS011;7584;60.468;25.126;2023-01-30T01:51:24;0.37;;;0.20;;
14975;SDS011;7584;60.468;25.126;2023-01-30T01:54:10;0.33;;;0.30;;
14975;SDS011;7584;60.468;25.126;2023-01-30T01:56:37;2.00;;;0.27;;
14975;SDS011;7584;60.468;25.126;2023-01-30T01:59:07;0.93;;;0.20;;
14975;SDS011;7584;60.468;25.126;2023-01-30T02:01:34;0.27;;;0.20;;
14975;SDS011;7584;60.468;25.126;2023-01-30T02:04:01;0.30;;;0.20;;
14975;SDS011;7584;60.468;25.126;2023-01-30T02:06:27;0.20;;;0.20;;
14975;SDS011;7584;60.468;25.126;2023-01-30T02:08:54;0.20;;;0.20;;
14975;SDS011;7584;60.468;25.126;2023-01-30T02:13:56;1.10;;;0.30;;
14975;SDS011;7584;60.468;25.126;2023-01-30T02:16:22;1.13;;;0.23;;
14975;SDS011;7584;60.468;25.126;2023-01-30T02:18:48;1.50;;;0.30;;
14975;SDS011;7584;60.468;25.126;2023-01-30T02:31:24;1.13;;;0.30;;
14975;SDS011;7584;60.468;25.126;2023-01-30T02:44:15;1.47;;;0.30;;
14975;SDS011;7584;60.468;25.126;2023-01-30T02:51:35;1.03;;;0.37;;
14975;SDS011;7584;60.468;25.126;2023-01-30T02:54:01;2.03;;;0.60;;
14975;SDS011;7584;60.468;25.126;2023-01-30T02:56:26;0.67;;;0.30;;
14975;SDS011;7584;60.468;25.126;2023-01-30T02:58:55;1.23;;;0.40;;
14975;SDS011;7584;60.468;25.126;2023-01-30T03:01:46;1.23;;;0.40;;
14975;SDS011;7584;60.468;25.126;2023-01-30T03:06:37;0.43;;;0.30;;
14975;SDS011;7584;60.468;25.126;2023-01-30T03:14:08;0.80;;;0.30;;
14975;SDS011;7584;60.468;25.126;2023-01-30T03:16:37;0.60;;;0.30;;
14975;SDS011;7584;60.468;25.126;2023-01-30T03:19:04;1.20;;;0.50;;
14975;SDS011;7584;60.468;25.126;2023-01-30T03:21:31;1.70;;;0.50;;
14975;SDS011;7584;60.468;25.126;2023-01-30T03:23:56;1.20;;;0.40;;
14975;SDS011;7584;60.468;25.126;2023-01-30T03:26:23;1.30;;;0.40;;
14975;SDS011;7584;60.468;25.126;2023-01-30T03:28:49;0.27;;;0.27;;
14975;SDS011;7584;60.468;25.126;2023-01-30T03:31:15;2.90;;;0.40;;
14975;SDS011;7584;60.468;25.126;2023-01-30T03:33:40;0.87;;;0.40;;
14975;SDS011;7584;60.468;25.126;2023-01-30T03:36:06;3.47;;;0.40;;
14975;SDS011;7584;60.468;25.126;2023-01-30T03:38:32;2.57;;;0.50;;
14975;SDS011;7584;60.468;25.126;2023-01-30T03:40:58;2.00;;;0.40;;
14975;SDS011;7584;60.468;25.126;2023-01-30T03:43:23;5.80;;;0.70;;
14975;SDS011;7584;60.468;25.126;2023-01-30T03:45:48;1.23;;;0.30;;
14975;SDS011;7584;60.468;25.126;2023-01-30T03:48:13;1.60;;;0.40;;
14975;SDS011;7584;60.468;25.126;2023-01-30T03:50:39;1.03;;;0.50;;
14975;SDS011;7584;60.468;25.126;2023-01-30T03:53:04;1.10;;;0.40;;
14975;SDS011;7584;60.468;25.126;2023-01-30T03:55:29;0.60;;;0.43;;
14975;SDS011;7584;60.468;25.126;2023-01-30T03:57:55;2.80;;;0.40;;
14975;SDS011;7584;60.468;25.126;2023-01-30T04:00:21;1.90;;;0.33;;
14975;SDS011;7584;60.468;25.126;2023-01-30T04:02:46;2.00;;;0.40;;
14975;SDS011;7584;60.468;25.126;2023-01-30T04:05:11;1.37;;;0.30;;
14975;SDS011;7584;60.468;25.126;2023-01-30T04:07:36;1.43;;;0.33;;
14975;SDS011;7584;60.468;25.126;2023-01-30T04:10:02;1.83;;;0.47;;
14975;SDS011;7584;60.468;25.126;2023-01-30T04:12:27;1.67;;;0.43;;
14975;SDS011;7584;60.468;25.126;2023-01-30T04:14:52;1.07;;;0.40;;
14975;SDS011;7584;60.468;25.126;2023-01-30T04:17:17;1.20;;;0.40;;
14975;SDS011;7584;60.468;25.126;2023-01-30T04:19:43;1.83;;;0.40;;
14975;SDS011;7584;60.468;25.126;2023-01-30T04:22:08;0.57;;;0.40;;
14975;SDS011;7584;60.468;25.126;2023-01-30T04:24:33;2.27;;;0.50;;
14975;SDS011;7584;60.468;25.126;2023-01-30T04:26:58;1.10;;;0.30;;
14975;SDS011;7584;60.468;25.126;2023-01-30T04:29:24;0.47;;;0.30;;
14975;SDS011;7584;60.468;25.126;2023-01-30T04:31:49;1.17;;;0.53;;
14975;SDS011;7584;60.468;25.126;2023-01-30T04:34:14;0.40;;;0.40;;
14975;SDS011;7584;60.468;25.126;2023-01-30T04:36:40;2.00;;;0.40;;
14975;SDS011;7584;60.468;25.126;2023-01-30T04:39:05;2.57;;;0.47;;
14975;SDS011;7584;60.468;25.126;2023-01-30T04:41:31;1.97;;;0.50;;
14975;SDS011;7584;60.468;25.126;2023-01-30T04:43:56;2.20;;;0.77;;
14975;SDS011;7584;60.468;25.126;2023-01-30T04:46:21;0.33;;;0.33;;
14975;SDS011;7584;60.468;25.126;2023-01-30T04:48:46;2.60;;;0.30;;
14975;SDS011;7584;60.468;25.126;2023-01-30T04:51:12;3.97;;;0.80;;
14975;SDS011;7584;60.468;25.126;2023-01-30T04:53:37;0.63;;;0.40;;
14975;SDS011;7584;60.468;25.126;2023-01-30T04:56:02;0.87;;;0.40;;
14975;SDS011;7584;60.468;25.126;2023-01-30T04:58:28;2.47;;;1.10;;
14975;SDS011;7584;60.468;25.126;2023-01-30T05:00:53;3.23;;;0.40;;
14975;SDS011;7584;60.468;25.126;2023-01-30T05:03:18;1.77;;;0.40;;
14975;SDS011;7584;60.468;25.126;2023-01-30T05:05:47;0.97;;;0.37;;
14975;SDS011;7584;60.468;25.126;2023-01-30T05:08:12;2.80;;;0.70;;
14975;SDS011;7584;60.468;25.126;2023-01-30T05:10:38;0.60;;;0.60;;
14975;SDS011;7584;60.468;25.126;2023-01-30T05:13:03;2.93;;;0.90;;
14975;SDS011;7584;60.468;25.126;2023-01-30T05:15:29;0.90;;;0.50;;
14975;SDS011;7584;60.468;25.126;2023-01-30T05:17:54;2.90;;;1.10;;
14975;SDS011;7584;60.468;25.126;2023-01-30T05:20:20;0.70;;;0.50;;
14975;SDS011;7584;60.468;25.126;2023-01-30T05:22:45;1.70;;;0.70;;
14975;SDS011;7584;60.468;25.126;2023-01-30T05:25:10;1.20;;;0.70;;
14975;SDS011;7584;60.468;25.126;2023-01-30T05:27:35;2.23;;;0.50;;
14975;SDS011;7584;60.468;25.126;2023-01-30T05:30:01;1.77;;;0.60;;
14975;SDS011;7584;60.468;25.126;2023-01-30T05:32:26;0.93;;;0.53;;
14975;SDS011;7584;60.468;25.126;2023-01-30T05:34:54;1.27;;;0.57;;
14975;SDS011;7584;60.468;25.126;2023-01-30T05:37:19;1.63;;;0.53;;
14975;SDS011;7584;60.468;25.126;2023-01-30T05:39:44;2.43;;;0.53;;
14975;SDS011;7584;60.468;25.126;2023-01-30T05:42:10;5.13;;;1.20;;
14975;SDS011;7584;60.468;25.126;2023-01-30T05:44:35;1.17;;;0.60;;
14975;SDS011;7584;60.468;25.126;2023-01-30T05:47:00;0.73;;;0.50;;
14975;SDS011;7584;60.468;25.126;2023-01-30T05:49:26;2.23;;;0.83;;
14975;SDS011;7584;60.468;25.126;2023-01-30T05:51:51;1.83;;;0.60;;
14975;SDS011;7584;60.468;25.126;2023-01-30T05:54:16;4.53;;;0.70;;
14975;SDS011;7584;60.468;25.126;2023-01-30T05:56:41;1.83;;;0.40;;
14975;SDS011;7584;60.468;25.126;2023-01-30T05:59:08;2.00;;;0.50;;
14975;SDS011;7584;60.468;25.126;2023-01-30T06:01:35;5.30;;;0.90;;
14975;SDS011;7584;60.468;25.126;2023-01-30T06:04:00;2.07;;;0.50;;
14975;SDS011;7584;60.468;25.126;2023-01-30T06:06:26;0.93;;;0.70;;
14975;SDS011;7584;60.468;25.126;2023-01-30T06:08:52;1.63;;;0.50;;
14975;SDS011;7584;60.468;25.126;2023-01-30T06:11:18;0.90;;;0.60;;
14975;SDS011;7584;60.468;25.126;2023-01-30T06:13:43;1.10;;;0.60;;
14975;SDS011;7584;60.468;25.126;2023-01-30T06:16:10;0.73;;;0.30;;
14975;SDS011;7584;60.468;25.126;2023-01-30T06:18:36;1.83;;;0.60;;
14975;SDS011;7584;60.468;25.126;2023-01-30T06:21:01;1.83;;;0.60;;
14975;SDS011;7584;60.468;25.126;2023-01-30T06:23:26;0.60;;;0.43;;
14975;SDS011;7584;60.468;25.126;2023-01-30T06:25:52;1.07;;;0.50;;
14975;SDS011;7584;60.468;25.126;2023-01-30T06:28:17;1.00;;;0.43;;
14975;SDS011;7584;60.468;25.126;2023-01-30T06:30:43;1.93;;;0.50;;
14975;SDS011;7584;60.468;25.126;2023-01-30T06:33:08;3.43;;;0.50;;
14975;SDS011;7584;60.468;25.126;2023-01-30T06:35:36;0.80;;;0.80;;
14975;SDS011;7584;60.468;25.126;2023-01-30T06:38:01;1.07;;;0.40;;
14975;SDS011;7584;60.468;25.126;2023-01-30T06:40:27;0.33;;;0.33;;
14975;SDS011;7584;60.468;25.126;2023-01-30T06:42:52;1.00;;;0.40;;
14975;SDS011;7584;60.468;25.126;2023-01-30T06:45:17;2.47;;;0.50;;
14975;SDS011;7584;60.468;25.126;2023-01-30T06:47:46;2.00;;;0.60;;
14975;SDS011;7584;60.468;25.126;2023-01-30T06:50:12;1.47;;;0.53;;
14975;SDS011;7584;60.468;25.126;2023-01-30T06:52:41;0.90;;;0.50;;
14975;SDS011;7584;60.468;25.126;2023-01-30T06:55:07;1.87;;;0.70;;
14975;SDS011;7584;60.468;25.126;2023-01-30T06:57:33;0.83;;;0.33;;
14975;SDS011;7584;60.468;25.126;2023-01-30T06:59:58;1.33;;;0.43;;
14975;SDS011;7584;60.468;25.126;2023-01-30T07:02:24;3.70;;;0.73;;
14975;SDS011;7584;60.468;25.126;2023-01-30T07:04:49;1.93;;;0.80;;
14975;SDS011;7584;60.468;25.126;2023-01-30T07:07:14;2.40;;;1.20;;
14975;SDS011;7584;60.468;25.126;2023-01-30T07:09:39;4.57;;;0.90;;
14975;SDS011;7584;60.468;25.126;2023-01-30T07:12:05;1.77;;;0.80;;
14975;SDS011;7584;60.468;25.126;2023-01-30T07:14:30;1.60;;;0.50;;
14975;SDS011;7584;60.468;25.126;2023-01-30T07:16:55;1.43;;;0.83;;
14975;SDS011;7584;60.468;25.126;2023-01-30T07:19:20;4.93;;;1.07;;
14975;SDS011;7584;60.468;25.126;2023-01-30T07:21:46;1.73;;;1.10;;
14975;SDS011;7584;60.468;25.126;2023-01-30T07:24:11;3.67;;;0.80;;
14975;SDS011;7584;60.468;25.126;2023-01-30T07:26:36;2.90;;;0.73;;
14975;SDS011;7584;60.468;25.126;2023-01-30T07:29:02;5.77;;;1.00;;
14975;SDS011;7584;60.468;25.126;2023-01-30T07:31:27;1.03;;;0.80;;
14975;SDS011;7584;60.468;25.126;2023-01-30T07:33:52;1.03;;;0.60;;
14975;SDS011;7584;60.468;25.126;2023-01-30T07:36:18;1.23;;;1.07;;
14975;SDS011;7584;60.468;25.126;2023-01-30T07:38:43;1.17;;;0.80;;
14975;SDS011;7584;60.468;25.126;2023-01-30T07:41:08;1.27;;;0.47;;
14975;SDS011;7584;60.468;25.126;2023-01-30T07:43:33;0.97;;;0.50;;
14975;SDS011;7584;60.468;25.126;2023-01-30T07:45:59;0.63;;;0.60;;
14975;SDS011;7584;60.468;25.126;2023-01-30T07:48:24;1.13;;;0.37;;
14975;SDS011;7584;60.468;25.126;2023-01-30T07:50:49;0.70;;;0.40;;
14975;SDS011;7584;60.468;25.126;2023-01-30T07:53:15;0.87;;;0.37;;
14975;SDS011;7584;60.468;25.126;2023-01-30T07:55:42;1.30;;;0.50;;
14975;SDS011;7584;60.468;25.126;2023-01-30T07:58:10;0.80;;;0.40;;
14975;SDS011;7584;60.468;25.126;2023-01-30T08:00:35;0.63;;;0.33;;
14975;SDS011;7584;60.468;25.126;2023-01-30T08:03:01;2.23;;;0.50;;
14975;SDS011;7584;60.468;25.126;2023-01-30T08:05:26;3.20;;;0.30;;
14975;SDS011;7584;60.468;25.126;2023-01-30T08:07:53;2.23;;;0.43;;
14975;SDS011;7584;60.468;25.126;2023-01-30T08:10:20;0.40;;;0.37;;
14975;SDS011;7584;60.468;25.126;2023-01-30T08:12:45;1.93;;;0.60;;
14975;SDS011;7584;60.468;25.126;2023-01-30T08:15:10;3.07;;;1.03;;
14975;SDS011;7584;60.468;25.126;2023-01-30T08:17:36;3.47;;;0.50;;
14975;SDS011;7584;60.468;25.126;2023-01-30T08:20:01;0.77;;;0.60;;
14975;SDS011;7584;60.468;25.126;2023-01-30T08:22:27;0.60;;;0.60;;
14975;SDS011;7584;60.468;25.126;2023-01-30T08:24:53;1.60;;;0.60;;
14975;SDS011;7584;60.468;25.126;2023-01-30T08:27:18;0.53;;;0.40;;
14975;SDS011;7584;60.468;25.126;2023-01-30T08:29:43;0.70;;;0.40;;
14975;SDS011;7584;60.468;25.126;2023-01-30T08:32:09;2.27;;;0.70;;
14975;SDS011;7584;60.468;25.126;2023-01-30T08:34:34;1.93;;;0.47;;
14975;SDS011;7584;60.468;25.126;2023-01-30T08:37:00;1.43;;;0.57;;
14975;SDS011;7584;60.468;25.126;2023-01-30T08:39:25;1.17;;;0.57;;
14975;SDS011;7584;60.468;25.126;2023-01-30T08:41:50;2.97;;;0.93;;
14975;SDS011;7584;60.468;25.126;2023-01-30T08:44:16;3.10;;;0.73;;
14975;SDS011;7584;60.468;25.126;2023-01-30T08:46:41;2.57;;;0.60;;
14975;SDS011;7584;60.468;25.126;2023-01-30T08:49:06;3.40;;;0.70;;
14975;SDS011;7584;60.468;25.126;2023-01-30T08:51:32;0.97;;;0.57;;
14975;SDS011;7584;60.468;25.126;2023-01-30T08:53:57;1.17;;;0.60;;
14975;SDS011;7584;60.468;25.126;2023-01-30T08:56:23;3.33;;;0.90;;
14975;SDS011;7584;60.468;25.126;2023-01-30T08:58:48;1.43;;;0.60;;
14975;SDS011;7584;60.468;25.126;2023-01-30T09:01:13;3.17;;;0.80;;
14975;SDS011;7584;60.468;25.126;2023-01-30T09:03:39;1.77;;;0.80;;
14975;SDS011;7584;60.468;25.126;2023-01-30T09:06:04;3.50;;;0.60;;
14975;SDS011;7584;60.468;25.126;2023-01-30T09:08:30;2.97;;;0.73;;
14975;SDS011;7584;60.468;25.126;2023-01-30T09:11:02;2.23;;;0.90;;
14975;SDS011;7584;60.468;25.126;2023-01-30T09:13:28;5.80;;;1.23;;
14975;SDS011;7584;60.468;25.126;2023-01-30T09:15:54;2.40;;;0.70;;
14975;SDS011;7584;60.468;25.126;2023-01-30T09:18:20;2.43;;;0.70;;
14975;SDS011;7584;60.468;25.126;2023-01-30T09:20:45;4.47;;;0.83;;
14975;SDS011;7584;60.468;25.126;2023-01-30T09:23:10;1.70;;;0.80;;
14975;SDS011;7584;60.468;25.126;2023-01-30T09:25:36;3.47;;;0.93;;
14975;SDS011;7584;60.468;25.126;2023-01-30T09:28:01;1.37;;;0.70;;
14975;SDS011;7584;60.468;25.126;2023-01-30T09:30:27;4.57;;;0.97;;
14975;SDS011;7584;60.468;25.126;2023-01-30T09:32:52;1.60;;;0.80;;
14975;SDS011;7584;60.468;25.126;2023-01-30T09:35:17;2.07;;;0.83;;
14975;SDS011;7584;60.468;25.126;2023-01-30T09:37:51;8.43;;;1.00;;
14975;SDS011;7584;60.468;25.126;2023-01-30T09:40:18;6.70;;;0.87;;
14975;SDS011;7584;60.468;25.126;2023-01-30T09:42:54;3.13;;;0.73;;
14975;SDS011;7584;60.468;25.126;2023-01-30T09:55:36;4.40;;;0.67;;
14975;SDS011;7584;60.468;25.126;2023-01-30T09:58:02;7.77;;;0.80;;
14975;SDS011;7584;60.468;25.126;2023-01-30T10:00:33;5.80;;;0.97;;
14975;SDS011;7584;60.468;25.126;2023-01-30T10:03:12;2.97;;;0.80;;
14975;SDS011;7584;60.468;25.126;2023-01-30T10:05:48;2.90;;;1.20;;
14975;SDS011;7584;60.468;25.126;2023-01-30T10:11:08;3.70;;;0.90;;
14975;SDS011;7584;60.468;25.126;2023-01-30T10:16:27;4.47;;;0.90;;
14975;SDS011;7584;60.468;25.126;2023-01-30T10:21:43;3.40;;;0.87;;
14975;SDS011;7584;60.468;25.126;2023-01-30T10:24:31;4.47;;;0.93;;
14975;SDS011;7584;60.468;25.126;2023-01-30T10:26:50;3.80;;;1.20;;
14975;SDS011;7584;60.468;25.126;2023-01-30T10:31:43;2.40;;;0.70;;
14975;SDS011;7584;60.468;25.126;2023-01-30T10:34:23;3.87;;;1.00;;
14975;SDS011;7584;60.468;25.126;2023-01-30T10:37:11;7.40;;;1.00;;
14975;SDS011;7584;60.468;25.126;2023-01-30T10:39:49;7.30;;;1.17;;
14975;SDS011;7584;60.468;25.126;2023-01-30T10:42:16;5.57;;;1.00;;
14975;SDS011;7584;60.468;25.126;2023-01-30T10:44:46;4.03;;;1.00;;
14975;SDS011;7584;60.468;25.126;2023-01-30T10:52:23;5.17;;;1.43;;
14975;SDS011;7584;60.468;25.126;2023-01-30T11:00:29;4.43;;;0.97;;
14975;SDS011;7584;60.468;25.126;2023-01-30T11:03:08;3.40;;;0.90;;
14975;SDS011;7584;60.468;25.126;2023-01-30T11:05:38;4.67;;;1.10;;
14975;SDS011;7584;60.468;25.126;2023-01-30T11:08:48;4.67;;;1.07;;
14975;SDS011;7584;60.468;25.126;2023-01-30T11:10:54;2.90;;;0.90;;
14975;SDS011;7584;60.468;25.126;2023-01-30T11:13:20;3.53;;;1.30;;
14975;SDS011;7584;60.468;25.126;2023-01-30T11:15:48;3.53;;;1.20;;
14975;SDS011;7584;60.468;25.126;2023-01-30T11:18:15;3.73;;;1.00;;
14975;SDS011;7584;60.468;25.126;2023-01-30T11:20:41;4.30;;;1.20;;
14975;SDS011;7584;60.468;25.126;2023-01-30T11:23:10;6.13;;;1.43;;
14975;SDS011;7584;60.468;25.126;2023-01-30T11:25:49;4.77;;;1.50;;
14975;SDS011;7584;60.468;25.126;2023-01-30T11:28:15;3.10;;;0.83;;
14975;SDS011;7584;60.468;25.126;2023-01-30T11:30:43;5.27;;;1.20;;
14975;SDS011;7584;60.468;25.126;2023-01-30T11:33:14;7.00;;;1.80;;
14975;SDS011;7584;60.468;25.126;2023-01-30T11:36:02;5.83;;;0.80;;
14975;SDS011;7584;60.468;25.126;2023-01-30T11:38:30;4.80;;;1.10;;
14975;SDS011;7584;60.468;25.126;2023-01-30T11:41:21;6.43;;;1.13;;
14975;SDS011;7584;60.468;25.126;2023-01-30T11:43:46;4.90;;;1.17;;
14975;SDS011;7584;60.468;25.126;2023-01-30T11:46:28;2.87;;;0.97;;
14975;SDS011;7584;60.468;25.126;2023-01-30T11:48:57;2.20;;;0.80;;
14975;SDS011;7584;60.468;25.126;2023-01-30T11:51:23;4.10;;;0.87;;
14975;SDS011;7584;60.468;25.126;2023-01-30T11:53:59;6.63;;;2.00;;
14975;SDS011;7584;60.468;25.126;2023-01-30T11:59:09;5.33;;;1.00;;
14975;SDS011;7584;60.468;25.126;2023-01-30T12:01:40;2.70;;;0.90;;
14975;SDS011;7584;60.468;25.126;2023-01-30T12:04:07;5.70;;;1.13;;
14975;SDS011;7584;60.468;25.126;2023-01-30T12:06:36;9.70;;;1.40;;
14975;SDS011;7584;60.468;25.126;2023-01-30T12:09:02;8.20;;;1.00;;
14975;SDS011;7584;60.468;25.126;2023-01-30T12:11:29;2.13;;;0.90;;
14975;SDS011;7584;60.468;25.126;2023-01-30T12:14:06;4.07;;;1.10;;
14975;SDS011;7584;60.468;25.126;2023-01-30T12:16:54;2.20;;;0.60;;
14975;SDS011;7584;60.468;25.126;2023-01-30T12:21:47;3.70;;;1.07;;
14975;SDS011;7584;60.468;25.126;2023-01-30T12:24:20;4.47;;;0.80;;
14975;SDS011;7584;60.468;25.126;2023-01-30T12:26:55;3.67;;;0.63;;
14975;SDS011;7584;60.468;25.126;2023-01-30T12:34:24;3.13;;;0.80;;
14975;SDS011;7584;60.468;25.126;2023-01-30T12:36:51;2.37;;;0.60;;
14975;SDS011;7584;60.468;25.126;2023-01-30T12:39:35;6.83;;;0.90;;
14975;SDS011;7584;60.468;25.126;2023-01-30T12:47:13;3.20;;;0.93;;
14975;SDS011;7584;60.468;25.126;2023-01-30T12:49:47;3.33;;;1.40;;
14975;SDS011;7584;60.468;25.126;2023-01-30T12:52:27;3.40;;;0.90;;
14975;SDS011;7584;60.468;25.126;2023-01-30T12:57:31;3.30;;;0.80;;
14975;SDS011;7584;60.468;25.126;2023-01-30T13:00:04;8.67;;;1.00;;
14975;SDS011;7584;60.468;25.126;2023-01-30T13:06:09;2.83;;;0.80;;
14975;SDS011;7584;60.468;25.126;2023-01-30T13:08:25;3.50;;;0.90;;
14975;SDS011;7584;60.468;25.126;2023-01-30T13:10:57;5.63;;;1.07;;
14975;SDS011;7584;60.468;25.126;2023-01-30T13:13:45;2.63;;;0.70;;
14975;SDS011;7584;60.468;25.126;2023-01-30T13:18:56;2.90;;;0.83;;
14975;SDS011;7584;60.468;25.126;2023-01-30T13:26:36;4.30;;;0.80;;
14975;SDS011;7584;60.468;25.126;2023-01-30T13:29:04;3.60;;;0.90;;
14975;SDS011;7584;60.468;25.126;2023-01-30T13:31:36;2.03;;;1.10;;
14975;SDS011;7584;60.468;25.126;2023-01-30T13:36:34;2.20;;;0.90;;
14975;SDS011;7584;60.468;25.126;2023-01-30T13:41:28;1.20;;;0.60;;
14975;SDS011;7584;60.468;25.126;2023-01-30T13:43:54;1.43;;;0.60;;
14975;SDS011;7584;60.468;25.126;2023-01-30T13:46:21;6.77;;;1.17;;
14975;SDS011;7584;60.468;25.126;2023-01-30T13:53:41;1.80;;;1.03;;
14975;SDS011;7584;60.468;25.126;2023-01-30T13:56:17;5.27;;;0.87;;
14975;SDS011;7584;60.468;25.126;2023-01-30T13:58:47;3.30;;;0.80;;
14975;SDS011;7584;60.468;25.126;2023-01-30T14:01:17;1.47;;;1.00;;
14975;SDS011;7584;60.468;25.126;2023-01-30T14:03:44;1.77;;;0.60;;
14975;SDS011;7584;60.468;25.126;2023-01-30T14:08:37;3.97;;;1.20;;
14975;SDS011;7584;60.468;25.126;2023-01-30T14:11:04;3.37;;;1.00;;
14975;SDS011;7584;60.468;25.126;2023-01-30T14:13:29;4.60;;;1.17;;
14975;SDS011;7584;60.468;25.126;2023-01-30T14:16:00;7.40;;;0.93;;
14975;SDS011;7584;60.468;25.126;2023-01-30T14:18:26;2.33;;;0.90;;
14975;SDS011;7584;60.468;25.126;2023-01-30T14:20:52;10.03;;;1.23;;
14975;SDS011;7584;60.468;25.126;2023-01-30T14:23:35;4.53;;;1.33;;
14975;SDS011;7584;60.468;25.126;2023-01-30T14:26:01;4.77;;;1.17;;
14975;SDS011;7584;60.468;25.126;2023-01-30T14:30:56;4.53;;;1.27;;
14975;SDS011;7584;60.468;25.126;2023-01-30T14:38:25;4.03;;;0.83;;
14975;SDS011;7584;60.468;25.126;2023-01-30T14:45:55;1.30;;;0.77;;
14975;SDS011;7584;60.468;25.126;2023-01-30T14:51:16;5.80;;;1.87;;
14975;SDS011;7584;60.468;25.126;2023-01-30T14:56:15;2.53;;;0.80;;
14975;SDS011;7584;60.468;25.126;2023-01-30T14:58:49;6.23;;;2.00;;
14975;SDS011;7584;60.468;25.126;2023-01-30T15:01:15;3.60;;;1.17;;
14975;SDS011;7584;60.468;25.126;2023-01-30T15:03:40;5.00;;;1.00;;
14975;SDS011;7584;60.468;25.126;2023-01-30T15:06:10;2.40;;;1.00;;
14975;SDS011;7584;60.468;25.126;2023-01-30T15:08:38;3.53;;;0.83;;
14975;SDS011;7584;60.468;25.126;2023-01-30T15:14:15;2.27;;;1.17;;
14975;SDS011;7584;60.468;25.126;2023-01-30T15:21:19;5.37;;;1.53;;
14975;SDS011;7584;60.468;25.126;2023-01-30T15:24:30;5.20;;;1.70;;
14975;SDS011;7584;60.468;25.126;2023-01-30T15:31:52;6.10;;;1.60;;
14975;SDS011;7584;60.468;25.126;2023-01-30T15:34:18;4.57;;;1.70;;
14975;SDS011;7584;60.468;25.126;2023-01-30T15:36:43;4.63;;;1.13;;
14975;SDS011;7584;60.468;25.126;2023-01-30T15:39:16;2.27;;;0.87;;
14975;SDS011;7584;60.468;25.126;2023-01-30T15:41:42;1.87;;;0.70;;
14975;SDS011;7584;60.468;25.126;2023-01-30T15:44:17;3.80;;;1.07;;
14975;SDS011;7584;60.468;25.126;2023-01-30T15:51:54;3.47;;;1.20;;
14975;SDS011;7584;60.468;25.126;2023-01-30T15:54:24;4.20;;;0.90;;
14975;SDS011;7584;60.468;25.126;2023-01-30T15:56:49;3.67;;;1.60;;
14975;SDS011;7584;60.468;25.126;2023-01-30T15:59:31;4.77;;;1.70;;
14975;SDS011;7584;60.468;25.126;2023-01-30T16:02:03;3.20;;;0.93;;
14975;SDS011;7584;60.468;25.126;2023-01-30T16:04:28;3.30;;;1.13;;
14975;SDS011;7584;60.468;25.126;2023-01-30T16:06:54;3.57;;;1.10;;
14975;SDS011;7584;60.468;25.126;2023-01-30T16:09:20;4.50;;;1.77;;
14975;SDS011;7584;60.468;25.126;2023-01-30T16:11:46;4.27;;;1.60;;
14975;SDS011;7584;60.468;25.126;2023-01-30T16:14:12;3.60;;;1.40;;
14975;SDS011;7584;60.468;25.126;2023-01-30T16:16:38;4.57;;;1.40;;
14975;SDS011;7584;60.468;25.126;2023-01-30T16:19:04;4.67;;;1.50;;
14975;SDS011;7584;60.468;25.126;2023-01-30T16:21:32;2.10;;;0.73;;
14975;SDS011;7584;60.468;25.126;2023-01-30T16:24:02;5.13;;;1.03;;
14975;SDS011;7584;60.468;25.126;2023-01-30T16:26:28;8.13;;;1.30;;
14975;SDS011;7584;60.468;25.126;2023-01-30T16:28:58;4.83;;;0.93;;
14975;SDS011;7584;60.468;25.126;2023-01-30T16:31:24;4.33;;;1.17;;
14975;SDS011;7584;60.468;25.126;2023-01-30T16:33:51;4.43;;;1.17;;
14975;SDS011;7584;60.468;25.126;2023-01-30T16:38:46;4.50;;;1.10;;
14975;SDS011;7584;60.468;25.126;2023-01-30T16:41:31;4.83;;;1.50;;
14975;SDS011;7584;60.468;25.126;2023-01-30T16:44:17;3.13;;;1.10;;
14975;SDS011;7584;60.468;25.126;2023-01-30T16:46:44;4.93;;;1.13;;
14975;SDS011;7584;60.468;25.126;2023-01-30T16:49:17;4.97;;;1.50;;
14975;SDS011;7584;60.468;25.126;2023-01-30T16:51:44;2.60;;;1.10;;
14975;SDS011;7584;60.468;25.126;2023-01-30T16:54:17;2.77;;;1.13;;
14975;SDS011;7584;60.468;25.126;2023-01-30T16:56:46;2.47;;;0.90;;
14975;SDS011;7584;60.468;25.126;2023-01-30T16:59:16;1.87;;;1.10;;
14975;SDS011;7584;60.468;25.126;2023-01-30T17:01:43;4.17;;;1.00;;
14975;SDS011;7584;60.468;25.126;2023-01-30T17:04:18;4.80;;;1.27;;
14975;SDS011;7584;60.468;25.126;2023-01-30T17:06:47;2.90;;;1.30;;
14975;SDS011;7584;60.468;25.126;2023-01-30T17:09:37;4.87;;;1.10;;
14975;SDS011;7584;60.468;25.126;2023-01-30T17:12:45;3.13;;;1.00;;
14975;SDS011;7584;60.468;25.126;2023-01-30T17:17:36;5.97;;;1.03;;
14975;SDS011;7584;60.468;25.126;2023-01-30T17:20:01;4.23;;;1.00;;
14975;SDS011;7584;60.468;25.126;2023-01-30T17:22:26;4.23;;;1.03;;
14975;SDS011;7584;60.468;25.126;2023-01-30T17:24:52;4.50;;;1.40;;